sensor_id;sensor_type;location;lat;lon;timestamp;P1;durP1;ratioP1;P2;durP2;ratioP2
11590;SDS011;5851;54.050;9.974;2023-09-18T00:00:30;9.18;;;6.63;;
11590;SDS011;5851;54.050;9.974;2023-09-18T00:02:57;6.78;;;6.18;;
11590;SDS011;5851;54.050;9.974;2023-09-18T00:05:27;7.05;;;6.35;;
11590;SDS011;5851;54.050;9.974;2023-09-18T00:07:54;7.45;;;6.50;;
11590;SDS011;5851;54.050;9.974;2023-09-18T00:10:22;6.60;;;6.00;;
11590;SDS011;5851;54.050;9.974;2023-09-18T00:12:50;7.18;;;6.47;;
11590;SDS011;5851;54.050;9.974;2023-09-18T00:15:16;7.93;;;6.63;;
11590;SDS011;5851;54.050;9.974;2023-09-18T00:17:43;6.95;;;5.72;;
11590;SDS011;5851;54.050;9.974;2023-09-18T00:20:10;7.45;;;6.53;;
11590;SDS011;5851;54.050;9.974;2023-09-18T00:22:38;7.72;;;6.55;;
11590;SDS011;5851;54.050;9.974;2023-09-18T00:25:05;6.50;;;5.90;;
11590;SDS011;5851;54.050;9.974;2023-09-18T00:27:34;6.70;;;6.10;;
11590;SDS011;5851;54.050;9.974;2023-09-18T00:30:01;8.13;;;7.07;;
11590;SDS011;5851;54.050;9.974;2023-09-18T00:32:28;8.18;;;7.05;;
11590;SDS011;5851;54.050;9.974;2023-09-18T00:34:56;7.82;;;7.05;;
11590;SDS011;5851;54.050;9.974;2023-09-18T00:37:23;6.80;;;6.18;;
11590;SDS011;5851;54.050;9.974;2023-09-18T00:39:49;7.35;;;6.30;;
11590;SDS011;5851;54.050;9.974;2023-09-18T00:42:16;7.47;;;6.68;;
11590;SDS011;5851;54.050;9.974;2023-09-18T00:44:45;6.65;;;6.05;;
11590;SDS011;5851;54.050;9.974;2023-09-18T00:47:12;7.68;;;6.50;;
11590;SDS011;5851;54.050;9.974;2023-09-18T00:49:40;7.53;;;6.75;;
11590;SDS011;5851;54.050;9.974;2023-09-18T00:52:11;8.00;;;6.53;;
11590;SDS011;5851;54.050;9.974;2023-09-18T00:54:38;8.02;;;6.68;;
11590;SDS011;5851;54.050;9.974;2023-09-18T00:57:07;6.65;;;6.05;;
11590;SDS011;5851;54.050;9.974;2023-09-18T00:59:35;7.75;;;7.03;;
11590;SDS011;5851;54.050;9.974;2023-09-18T01:02:03;7.60;;;6.80;;
11590;SDS011;5851;54.050;9.974;2023-09-18T01:04:30;7.38;;;6.72;;
11590;SDS011;5851;54.050;9.974;2023-09-18T01:06:59;7.32;;;6.60;;
11590;SDS011;5851;54.050;9.974;2023-09-18T01:09:28;7.63;;;6.85;;
11590;SDS011;5851;54.050;9.974;2023-09-18T01:11:59;7.20;;;6.50;;
11590;SDS011;5851;54.050;9.974;2023-09-18T01:14:31;7.13;;;6.43;;
11590;SDS011;5851;54.050;9.974;2023-09-18T01:17:04;8.25;;;6.93;;
11590;SDS011;5851;54.050;9.974;2023-09-18T01:19:39;7.45;;;6.68;;
11590;SDS011;5851;54.050;9.974;2023-09-18T01:22:07;7.57;;;6.88;;
11590;SDS011;5851;54.050;9.974;2023-09-18T01:24:37;7.63;;;6.65;;
11590;SDS011;5851;54.050;9.974;2023-09-18T01:27:07;7.90;;;7.10;;
11590;SDS011;5851;54.050;9.974;2023-09-18T01:29:35;7.03;;;6.32;;
11590;SDS011;5851;54.050;9.974;2023-09-18T01:32:03;8.73;;;6.78;;
11590;SDS011;5851;54.050;9.974;2023-09-18T01:34:31;7.13;;;6.43;;
11590;SDS011;5851;54.050;9.974;2023-09-18T01:37:01;7.28;;;6.57;;
11590;SDS011;5851;54.050;9.974;2023-09-18T01:39:31;7.68;;;6.88;;
11590;SDS011;5851;54.050;9.974;2023-09-18T01:42:02;7.03;;;6.32;;
11590;SDS011;5851;54.050;9.974;2023-09-18T01:44:30;7.45;;;6.75;;
11590;SDS011;5851;54.050;9.974;2023-09-18T01:46:58;7.60;;;6.80;;
11590;SDS011;5851;54.050;9.974;2023-09-18T01:49:28;6.85;;;6.25;;
11590;SDS011;5851;54.050;9.974;2023-09-18T01:51:55;7.40;;;6.60;;
11590;SDS011;5851;54.050;9.974;2023-09-18T01:54:22;7.53;;;6.38;;
11590;SDS011;5851;54.050;9.974;2023-09-18T01:56:49;7.75;;;6.85;;
11590;SDS011;5851;54.050;9.974;2023-09-18T01:59:18;7.15;;;6.45;;
11590;SDS011;5851;54.050;9.974;2023-09-18T02:01:45;7.10;;;6.40;;
11590;SDS011;5851;54.050;9.974;2023-09-18T02:04:12;7.30;;;6.60;;
11590;SDS011;5851;54.050;9.974;2023-09-18T02:06:39;7.40;;;6.57;;
11590;SDS011;5851;54.050;9.974;2023-09-18T02:09:06;6.63;;;6.03;;
11590;SDS011;5851;54.050;9.974;2023-09-18T02:11:35;7.28;;;6.57;;
11590;SDS011;5851;54.050;9.974;2023-09-18T02:14:03;7.00;;;6.30;;
11590;SDS011;5851;54.050;9.974;2023-09-18T02:16:32;7.57;;;6.68;;
11590;SDS011;5851;54.050;9.974;2023-09-18T02:18:59;7.45;;;6.70;;
11590;SDS011;5851;54.050;9.974;2023-09-18T02:21:26;7.45;;;6.20;;
11590;SDS011;5851;54.050;9.974;2023-09-18T02:23:53;9.00;;;6.78;;
11590;SDS011;5851;54.050;9.974;2023-09-18T02:26:21;7.63;;;6.82;;
11590;SDS011;5851;54.050;9.974;2023-09-18T02:28:49;7.15;;;6.53;;
11590;SDS011;5851;54.050;9.974;2023-09-18T02:31:17;7.60;;;6.88;;
11590;SDS011;5851;54.050;9.974;2023-09-18T02:33:46;7.57;;;6.60;;
11590;SDS011;5851;54.050;9.974;2023-09-18T02:36:13;7.70;;;6.85;;
11590;SDS011;5851;54.050;9.974;2023-09-18T02:38:40;7.63;;;6.93;;
11590;SDS011;5851;54.050;9.974;2023-09-18T02:41:07;8.70;;;6.85;;
11590;SDS011;5851;54.050;9.974;2023-09-18T02:43:33;7.55;;;6.85;;
11590;SDS011;5851;54.050;9.974;2023-09-18T02:46:03;7.75;;;7.05;;
11590;SDS011;5851;54.050;9.974;2023-09-18T02:48:30;8.23;;;7.35;;
11590;SDS011;5851;54.050;9.974;2023-09-18T02:50:59;7.53;;;6.60;;
11590;SDS011;5851;54.050;9.974;2023-09-18T02:53:26;7.70;;;7.00;;
11590;SDS011;5851;54.050;9.974;2023-09-18T02:55:55;7.72;;;6.85;;
11590;SDS011;5851;54.050;9.974;2023-09-18T02:58:23;7.30;;;6.60;;
11590;SDS011;5851;54.050;9.974;2023-09-18T03:00:51;7.53;;;6.70;;
11590;SDS011;5851;54.050;9.974;2023-09-18T03:03:19;7.97;;;6.47;;
11590;SDS011;5851;54.050;9.974;2023-09-18T03:05:46;8.07;;;7.35;;
11590;SDS011;5851;54.050;9.974;2023-09-18T03:08:14;8.52;;;7.20;;
11590;SDS011;5851;54.050;9.974;2023-09-18T03:10:42;7.88;;;7.18;;
11590;SDS011;5851;54.050;9.974;2023-09-18T03:13:10;7.90;;;7.07;;
11590;SDS011;5851;54.050;9.974;2023-09-18T03:15:39;8.23;;;7.43;;
11590;SDS011;5851;54.050;9.974;2023-09-18T03:18:06;7.90;;;7.10;;
11590;SDS011;5851;54.050;9.974;2023-09-18T03:20:33;7.38;;;6.70;;
11590;SDS011;5851;54.050;9.974;2023-09-18T03:23:00;7.72;;;6.82;;
11590;SDS011;5851;54.050;9.974;2023-09-18T03:25:30;7.57;;;6.85;;
11590;SDS011;5851;54.050;9.974;2023-09-18T03:27:57;7.80;;;7.00;;
11590;SDS011;5851;54.050;9.974;2023-09-18T03:30:24;7.40;;;6.70;;
11590;SDS011;5851;54.050;9.974;2023-09-18T03:32:51;8.13;;;7.32;;
11590;SDS011;5851;54.050;9.974;2023-09-18T03:35:19;8.00;;;7.05;;
11590;SDS011;5851;54.050;9.974;2023-09-18T03:37:47;7.68;;;6.93;;
11590;SDS011;5851;54.050;9.974;2023-09-18T03:40:15;7.97;;;7.18;;
11590;SDS011;5851;54.050;9.974;2023-09-18T03:42:43;7.57;;;6.75;;
11590;SDS011;5851;54.050;9.974;2023-09-18T03:45:10;7.75;;;7.00;;
11590;SDS011;5851;54.050;9.974;2023-09-18T03:47:38;7.95;;;7.20;;
11590;SDS011;5851;54.050;9.974;2023-09-18T03:50:06;8.77;;;6.95;;
11590;SDS011;5851;54.050;9.974;2023-09-18T03:52:34;7.78;;;7.00;;
11590;SDS011;5851;54.050;9.974;2023-09-18T03:55:01;8.05;;;7.20;;
11590;SDS011;5851;54.050;9.974;2023-09-18T03:57:28;7.75;;;6.95;;
11590;SDS011;5851;54.050;9.974;2023-09-18T03:59:56;8.25;;;7.43;;
11590;SDS011;5851;54.050;9.974;2023-09-18T04:02:24;7.93;;;7.13;;
11590;SDS011;5851;54.050;9.974;2023-09-18T04:04:53;9.68;;;7.32;;
11590;SDS011;5851;54.050;9.974;2023-09-18T04:07:20;7.53;;;6.70;;
11590;SDS011;5851;54.050;9.974;2023-09-18T04:09:47;7.72;;;6.93;;
11590;SDS011;5851;54.050;9.974;2023-09-18T04:12:14;8.25;;;6.90;;
11590;SDS011;5851;54.050;9.974;2023-09-18T04:14:41;7.53;;;6.82;;
11590;SDS011;5851;54.050;9.974;2023-09-18T04:17:09;8.95;;;8.15;;
11590;SDS011;5851;54.050;9.974;2023-09-18T04:19:36;8.77;;;7.88;;
11590;SDS011;5851;54.050;9.974;2023-09-18T04:22:03;7.65;;;6.95;;
11590;SDS011;5851;54.050;9.974;2023-09-18T04:24:30;7.90;;;7.20;;
11590;SDS011;5851;54.050;9.974;2023-09-18T04:26:56;7.53;;;6.82;;
11590;SDS011;5851;54.050;9.974;2023-09-18T04:29:23;7.38;;;6.68;;
11590;SDS011;5851;54.050;9.974;2023-09-18T04:31:50;7.88;;;7.07;;
11590;SDS011;5851;54.050;9.974;2023-09-18T04:34:20;7.80;;;7.10;;
11590;SDS011;5851;54.050;9.974;2023-09-18T04:36:47;7.35;;;6.65;;
11590;SDS011;5851;54.050;9.974;2023-09-18T04:39:14;8.43;;;7.47;;
11590;SDS011;5851;54.050;9.974;2023-09-18T04:41:41;8.27;;;7.38;;
11590;SDS011;5851;54.050;9.974;2023-09-18T04:44:08;7.85;;;7.13;;
11590;SDS011;5851;54.050;9.974;2023-09-18T04:46:37;7.90;;;7.20;;
11590;SDS011;5851;54.050;9.974;2023-09-18T04:49:07;8.45;;;7.30;;
11590;SDS011;5851;54.050;9.974;2023-09-18T04:51:37;8.32;;;7.10;;
11590;SDS011;5851;54.050;9.974;2023-09-18T04:54:04;8.75;;;7.10;;
11590;SDS011;5851;54.050;9.974;2023-09-18T04:56:31;8.07;;;7.22;;
11590;SDS011;5851;54.050;9.974;2023-09-18T04:58:59;8.38;;;7.57;;
11590;SDS011;5851;54.050;9.974;2023-09-18T05:01:26;8.23;;;7.32;;
11590;SDS011;5851;54.050;9.974;2023-09-18T05:03:52;8.50;;;7.70;;
11590;SDS011;5851;54.050;9.974;2023-09-18T05:06:19;8.02;;;7.32;;
11590;SDS011;5851;54.050;9.974;2023-09-18T05:08:48;7.60;;;6.87;;
11590;SDS011;5851;54.050;9.974;2023-09-18T05:11:15;7.88;;;7.05;;
11590;SDS011;5851;54.050;9.974;2023-09-18T05:13:43;8.15;;;7.32;;
11590;SDS011;5851;54.050;9.974;2023-09-18T05:16:11;8.47;;;7.67;;
11590;SDS011;5851;54.050;9.974;2023-09-18T05:18:38;8.10;;;7.40;;
11590;SDS011;5851;54.050;9.974;2023-09-18T05:21:05;7.80;;;7.10;;
11590;SDS011;5851;54.050;9.974;2023-09-18T05:23:34;8.57;;;6.95;;
11590;SDS011;5851;54.050;9.974;2023-09-18T05:26:03;8.20;;;6.80;;
11590;SDS011;5851;54.050;9.974;2023-09-18T05:28:30;8.82;;;7.93;;
11590;SDS011;5851;54.050;9.974;2023-09-18T05:30:56;8.40;;;7.53;;
11590;SDS011;5851;54.050;9.974;2023-09-18T05:33:23;7.97;;;7.28;;
11590;SDS011;5851;54.050;9.974;2023-09-18T05:35:50;8.25;;;7.45;;
11590;SDS011;5851;54.050;9.974;2023-09-18T05:38:17;8.32;;;7.20;;
11590;SDS011;5851;54.050;9.974;2023-09-18T05:40:44;8.00;;;7.20;;
11590;SDS011;5851;54.050;9.974;2023-09-18T05:43:14;8.38;;;7.57;;
11590;SDS011;5851;54.050;9.974;2023-09-18T05:45:41;8.38;;;7.57;;
11590;SDS011;5851;54.050;9.974;2023-09-18T05:48:08;8.10;;;7.30;;
11590;SDS011;5851;54.050;9.974;2023-09-18T05:50:35;8.50;;;7.70;;
11590;SDS011;5851;54.050;9.974;2023-09-18T05:53:02;8.50;;;7.70;;
11590;SDS011;5851;54.050;9.974;2023-09-18T05:55:30;8.60;;;7.80;;
11590;SDS011;5851;54.050;9.974;2023-09-18T05:57:57;8.55;;;7.50;;
11590;SDS011;5851;54.050;9.974;2023-09-18T06:00:25;8.38;;;6.90;;
11590;SDS011;5851;54.050;9.974;2023-09-18T06:02:52;8.10;;;7.30;;
11590;SDS011;5851;54.050;9.974;2023-09-18T06:05:19;8.23;;;7.43;;
11590;SDS011;5851;54.050;9.974;2023-09-18T06:07:47;8.15;;;7.35;;
11590;SDS011;5851;54.050;9.974;2023-09-18T06:10:14;8.43;;;7.60;;
11590;SDS011;5851;54.050;9.974;2023-09-18T06:12:42;9.55;;;7.70;;
11590;SDS011;5851;54.050;9.974;2023-09-18T06:15:10;7.68;;;6.88;;
11590;SDS011;5851;54.050;9.974;2023-09-18T06:17:39;8.02;;;7.28;;
11590;SDS011;5851;54.050;9.974;2023-09-18T06:20:06;8.82;;;7.93;;
11590;SDS011;5851;54.050;9.974;2023-09-18T06:22:36;10.05;;;7.63;;
11590;SDS011;5851;54.050;9.974;2023-09-18T06:25:04;8.63;;;7.32;;
11590;SDS011;5851;54.050;9.974;2023-09-18T06:27:33;8.38;;;7.57;;
11590;SDS011;5851;54.050;9.974;2023-09-18T06:30:01;8.73;;;7.70;;
11590;SDS011;5851;54.050;9.974;2023-09-18T06:32:29;8.30;;;7.50;;
11590;SDS011;5851;54.050;9.974;2023-09-18T06:34:57;8.52;;;7.40;;
11590;SDS011;5851;54.050;9.974;2023-09-18T06:37:24;8.40;;;7.50;;
11590;SDS011;5851;54.050;9.974;2023-09-18T06:39:51;8.52;;;7.72;;
11590;SDS011;5851;54.050;9.974;2023-09-18T06:42:18;9.20;;;8.30;;
11590;SDS011;5851;54.050;9.974;2023-09-18T06:44:45;7.93;;;7.15;;
11590;SDS011;5851;54.050;9.974;2023-09-18T06:47:12;9.00;;;8.05;;
11590;SDS011;5851;54.050;9.974;2023-09-18T06:49:40;8.57;;;7.50;;
11590;SDS011;5851;54.050;9.974;2023-09-18T06:52:09;9.13;;;8.20;;
11590;SDS011;5851;54.050;9.974;2023-09-18T06:54:38;8.70;;;7.82;;
11590;SDS011;5851;54.050;9.974;2023-09-18T06:57:06;8.85;;;7.85;;
11590;SDS011;5851;54.050;9.974;2023-09-18T06:59:32;9.35;;;8.43;;
11590;SDS011;5851;54.050;9.974;2023-09-18T07:02:00;8.45;;;7.47;;
11590;SDS011;5851;54.050;9.974;2023-09-18T07:04:27;8.70;;;7.85;;
11590;SDS011;5851;54.050;9.974;2023-09-18T07:06:54;8.90;;;8.10;;
11590;SDS011;5851;54.050;9.974;2023-09-18T07:09:23;9.15;;;8.18;;
11590;SDS011;5851;54.050;9.974;2023-09-18T07:11:51;8.25;;;7.45;;
11590;SDS011;5851;54.050;9.974;2023-09-18T07:14:18;10.07;;;7.97;;
11590;SDS011;5851;54.050;9.974;2023-09-18T07:16:45;8.13;;;7.28;;
11590;SDS011;5851;54.050;9.974;2023-09-18T07:19:12;9.68;;;7.50;;
11590;SDS011;5851;54.050;9.974;2023-09-18T07:21:42;8.35;;;7.53;;
11590;SDS011;5851;54.050;9.974;2023-09-18T07:24:11;8.70;;;7.60;;
11590;SDS011;5851;54.050;9.974;2023-09-18T07:26:44;8.40;;;7.65;;
11590;SDS011;5851;54.050;9.974;2023-09-18T07:29:12;9.88;;;7.28;;
11590;SDS011;5851;54.050;9.974;2023-09-18T07:31:40;8.40;;;7.55;;
11590;SDS011;5851;54.050;9.974;2023-09-18T07:34:07;8.73;;;7.82;;
11590;SDS011;5851;54.050;9.974;2023-09-18T07:36:35;7.93;;;7.05;;
11590;SDS011;5851;54.050;9.974;2023-09-18T07:39:02;8.27;;;7.45;;
11590;SDS011;5851;54.050;9.974;2023-09-18T07:41:29;7.75;;;7.05;;
11590;SDS011;5851;54.050;9.974;2023-09-18T07:43:58;9.40;;;7.55;;
11590;SDS011;5851;54.050;9.974;2023-09-18T07:46:25;7.93;;;7.13;;
11590;SDS011;5851;54.050;9.974;2023-09-18T07:48:52;9.77;;;7.32;;
11590;SDS011;5851;54.050;9.974;2023-09-18T07:51:19;8.55;;;7.75;;
11590;SDS011;5851;54.050;9.974;2023-09-18T07:53:46;8.43;;;7.22;;
11590;SDS011;5851;54.050;9.974;2023-09-18T07:56:14;7.43;;;6.60;;
11590;SDS011;5851;54.050;9.974;2023-09-18T07:58:42;8.55;;;7.20;;
11590;SDS011;5851;54.050;9.974;2023-09-18T08:01:10;7.90;;;7.10;;
11590;SDS011;5851;54.050;9.974;2023-09-18T08:03:38;7.53;;;6.82;;
11590;SDS011;5851;54.050;9.974;2023-09-18T08:06:06;7.57;;;6.88;;
11590;SDS011;5851;54.050;9.974;2023-09-18T08:08:33;8.05;;;7.25;;
11590;SDS011;5851;54.050;9.974;2023-09-18T08:11:06;7.78;;;7.00;;
11590;SDS011;5851;54.050;9.974;2023-09-18T08:13:34;7.47;;;6.78;;
11590;SDS011;5851;54.050;9.974;2023-09-18T08:16:02;7.15;;;6.55;;
11590;SDS011;5851;54.050;9.974;2023-09-18T08:18:31;6.85;;;6.25;;
11590;SDS011;5851;54.050;9.974;2023-09-18T08:20:59;7.03;;;6.32;;
11590;SDS011;5851;54.050;9.974;2023-09-18T08:23:27;7.47;;;6.78;;
11590;SDS011;5851;54.050;9.974;2023-09-18T08:25:54;7.25;;;6.53;;
11590;SDS011;5851;54.050;9.974;2023-09-18T08:28:22;7.35;;;6.60;;
11590;SDS011;5851;54.050;9.974;2023-09-18T08:30:50;8.48;;;6.53;;
11590;SDS011;5851;54.050;9.974;2023-09-18T08:33:17;7.38;;;6.70;;
11590;SDS011;5851;54.050;9.974;2023-09-18T08:35:45;8.68;;;6.47;;
11590;SDS011;5851;54.050;9.974;2023-09-18T08:38:14;7.05;;;6.35;;
11590;SDS011;5851;54.050;9.974;2023-09-18T08:40:41;7.10;;;6.05;;
11590;SDS011;5851;54.050;9.974;2023-09-18T08:43:09;6.47;;;5.88;;
11590;SDS011;5851;54.050;9.974;2023-09-18T08:45:40;6.50;;;5.90;;
11590;SDS011;5851;54.050;9.974;2023-09-18T08:48:12;8.88;;;6.38;;
11590;SDS011;5851;54.050;9.974;2023-09-18T08:50:39;6.75;;;6.10;;
11590;SDS011;5851;54.050;9.974;2023-09-18T08:53:10;7.22;;;6.00;;
11590;SDS011;5851;54.050;9.974;2023-09-18T08:55:37;8.10;;;6.03;;
11590;SDS011;5851;54.050;9.974;2023-09-18T08:58:05;6.05;;;5.53;;
11590;SDS011;5851;54.050;9.974;2023-09-18T09:00:33;6.93;;;5.90;;
11590;SDS011;5851;54.050;9.974;2023-09-18T09:03:03;7.47;;;5.75;;
11590;SDS011;5851;54.050;9.974;2023-09-18T09:05:30;6.70;;;6.10;;
11590;SDS011;5851;54.050;9.974;2023-09-18T09:07:58;7.05;;;6.15;;
11590;SDS011;5851;54.050;9.974;2023-09-18T09:10:27;6.30;;;5.70;;
11590;SDS011;5851;54.050;9.974;2023-09-18T09:12:55;6.25;;;5.68;;
11590;SDS011;5851;54.050;9.974;2023-09-18T09:15:23;6.53;;;5.93;;
11590;SDS011;5851;54.050;9.974;2023-09-18T09:17:52;6.47;;;5.80;;
11590;SDS011;5851;54.050;9.974;2023-09-18T09:20:29;6.82;;;6.22;;
11590;SDS011;5851;54.050;9.974;2023-09-18T09:22:59;6.35;;;5.68;;
11590;SDS011;5851;54.050;9.974;2023-09-18T09:25:29;6.38;;;5.75;;
11590;SDS011;5851;54.050;9.974;2023-09-18T09:27:58;7.60;;;5.72;;
11590;SDS011;5851;54.050;9.974;2023-09-18T09:30:26;6.15;;;5.57;;
11590;SDS011;5851;54.050;9.974;2023-09-18T09:32:55;6.13;;;5.63;;
11590;SDS011;5851;54.050;9.974;2023-09-18T09:35:23;6.50;;;5.78;;
11590;SDS011;5851;54.050;9.974;2023-09-18T09:37:52;6.10;;;5.60;;
11590;SDS011;5851;54.050;9.974;2023-09-18T09:40:20;7.40;;;5.30;;
11590;SDS011;5851;54.050;9.974;2023-09-18T09:42:49;6.68;;;5.45;;
11590;SDS011;5851;54.050;9.974;2023-09-18T09:45:19;6.72;;;5.88;;
11590;SDS011;5851;54.050;9.974;2023-09-18T09:47:46;8.75;;;5.90;;
11590;SDS011;5851;54.050;9.974;2023-09-18T09:50:14;6.90;;;5.75;;
11590;SDS011;5851;54.050;9.974;2023-09-18T09:52:44;6.03;;;5.43;;
11590;SDS011;5851;54.050;9.974;2023-09-18T09:55:19;9.50;;;5.90;;
11590;SDS011;5851;54.050;9.974;2023-09-18T09:57:48;6.65;;;5.63;;
11590;SDS011;5851;54.050;9.974;2023-09-18T10:00:17;6.25;;;5.70;;
11590;SDS011;5851;54.050;9.974;2023-09-18T10:02:53;7.20;;;5.72;;
11590;SDS011;5851;54.050;9.974;2023-09-18T10:05:24;6.00;;;5.38;;
11590;SDS011;5851;54.050;9.974;2023-09-18T10:07:57;6.00;;;5.50;;
11590;SDS011;5851;54.050;9.974;2023-09-18T10:10:29;6.60;;;5.85;;
11590;SDS011;5851;54.050;9.974;2023-09-18T10:13:02;6.13;;;5.20;;
11590;SDS011;5851;54.050;9.974;2023-09-18T10:15:35;6.55;;;5.75;;
11590;SDS011;5851;54.050;9.974;2023-09-18T10:18:08;6.57;;;5.78;;
11590;SDS011;5851;54.050;9.974;2023-09-18T10:20:43;6.13;;;5.35;;
11590;SDS011;5851;54.050;9.974;2023-09-18T10:23:15;9.50;;;5.47;;
11590;SDS011;5851;54.050;9.974;2023-09-18T10:25:58;6.55;;;5.60;;
11590;SDS011;5851;54.050;9.974;2023-09-18T10:28:30;6.13;;;5.38;;
11590;SDS011;5851;54.050;9.974;2023-09-18T10:30:58;5.82;;;5.28;;
11590;SDS011;5851;54.050;9.974;2023-09-18T10:33:26;6.30;;;5.70;;
11590;SDS011;5851;54.050;9.974;2023-09-18T10:35:54;6.32;;;5.72;;
11590;SDS011;5851;54.050;9.974;2023-09-18T10:38:23;7.35;;;5.80;;
11590;SDS011;5851;54.050;9.974;2023-09-18T10:40:53;7.35;;;5.55;;
11590;SDS011;5851;54.050;9.974;2023-09-18T10:43:23;6.35;;;5.75;;
11590;SDS011;5851;54.050;9.974;2023-09-18T10:45:52;6.25;;;5.65;;
11590;SDS011;5851;54.050;9.974;2023-09-18T10:48:20;6.43;;;5.43;;
11590;SDS011;5851;54.050;9.974;2023-09-18T10:50:49;6.82;;;5.60;;
11590;SDS011;5851;54.050;9.974;2023-09-18T10:53:18;7.57;;;6.18;;
11590;SDS011;5851;54.050;9.974;2023-09-18T10:55:48;7.40;;;5.70;;
11590;SDS011;5851;54.050;9.974;2023-09-18T10:58:22;6.68;;;5.93;;
11590;SDS011;5851;54.050;9.974;2023-09-18T11:00:51;7.05;;;5.32;;
11590;SDS011;5851;54.050;9.974;2023-09-18T11:03:21;6.10;;;5.40;;
11590;SDS011;5851;54.050;9.974;2023-09-18T11:06:04;8.00;;;5.60;;
11590;SDS011;5851;54.050;9.974;2023-09-18T11:08:33;7.55;;;5.53;;
11590;SDS011;5851;54.050;9.974;2023-09-18T11:11:01;6.85;;;5.85;;
11590;SDS011;5851;54.050;9.974;2023-09-18T11:13:35;6.15;;;5.30;;
11590;SDS011;5851;54.050;9.974;2023-09-18T11:16:17;6.18;;;5.57;;
11590;SDS011;5851;54.050;9.974;2023-09-18T11:18:50;6.70;;;5.22;;
11590;SDS011;5851;54.050;9.974;2023-09-18T11:21:23;6.93;;;5.65;;
11590;SDS011;5851;54.050;9.974;2023-09-18T11:23:57;7.25;;;5.43;;
11590;SDS011;5851;54.050;9.974;2023-09-18T11:26:28;8.73;;;5.43;;
11590;SDS011;5851;54.050;9.974;2023-09-18T11:28:55;5.55;;;5.03;;
11590;SDS011;5851;54.050;9.974;2023-09-18T11:34:13;10.77;;;5.53;;
11590;SDS011;5851;54.050;9.974;2023-09-18T11:36:41;6.45;;;5.43;;
11590;SDS011;5851;54.050;9.974;2023-09-18T11:39:08;7.18;;;5.03;;
11590;SDS011;5851;54.050;9.974;2023-09-18T11:41:37;6.78;;;5.25;;
11590;SDS011;5851;54.050;9.974;2023-09-18T11:47:09;6.80;;;5.55;;
11590;SDS011;5851;54.050;9.974;2023-09-18T11:49:42;8.90;;;5.07;;
11590;SDS011;5851;54.050;9.974;2023-09-18T11:52:14;8.80;;;5.43;;
11590;SDS011;5851;54.050;9.974;2023-09-18T11:54:43;7.05;;;5.45;;
11590;SDS011;5851;54.050;9.974;2023-09-18T11:57:12;6.28;;;5.32;;
11590;SDS011;5851;54.050;9.974;2023-09-18T11:59:40;8.10;;;5.72;;
11590;SDS011;5851;54.050;9.974;2023-09-18T12:02:09;7.53;;;5.70;;
11590;SDS011;5851;54.050;9.974;2023-09-18T12:04:45;7.10;;;5.80;;
11590;SDS011;5851;54.050;9.974;2023-09-18T12:07:13;7.75;;;5.53;;
11590;SDS011;5851;54.050;9.974;2023-09-18T12:09:40;9.98;;;5.88;;
11590;SDS011;5851;54.050;9.974;2023-09-18T12:12:08;7.93;;;5.82;;
11590;SDS011;5851;54.050;9.974;2023-09-18T12:14:36;8.68;;;5.53;;
11590;SDS011;5851;54.050;9.974;2023-09-18T12:17:07;7.40;;;5.60;;
11590;SDS011;5851;54.050;9.974;2023-09-18T12:19:35;7.68;;;5.50;;
11590;SDS011;5851;54.050;9.974;2023-09-18T12:22:03;8.57;;;5.70;;
11590;SDS011;5851;54.050;9.974;2023-09-18T12:24:30;8.50;;;5.47;;
11590;SDS011;5851;54.050;9.974;2023-09-18T12:26:57;8.98;;;5.18;;
11590;SDS011;5851;54.050;9.974;2023-09-18T12:29:25;6.63;;;5.28;;
11590;SDS011;5851;54.050;9.974;2023-09-18T12:31:54;6.97;;;5.97;;
11590;SDS011;5851;54.050;9.974;2023-09-18T12:34:21;8.32;;;5.70;;
11590;SDS011;5851;54.050;9.974;2023-09-18T12:36:50;6.72;;;6.03;;
11590;SDS011;5851;54.050;9.974;2023-09-18T12:39:18;8.05;;;5.60;;
11590;SDS011;5851;54.050;9.974;2023-09-18T12:41:47;8.98;;;6.03;;
11590;SDS011;5851;54.050;9.974;2023-09-18T12:44:14;8.43;;;5.63;;
11590;SDS011;5851;54.050;9.974;2023-09-18T12:46:43;6.28;;;5.47;;
11590;SDS011;5851;54.050;9.974;2023-09-18T12:49:15;8.45;;;5.35;;
11590;SDS011;5851;54.050;9.974;2023-09-18T12:51:43;6.88;;;5.40;;
11590;SDS011;5851;54.050;9.974;2023-09-18T12:54:13;9.35;;;6.60;;
11590;SDS011;5851;54.050;9.974;2023-09-18T12:56:41;10.20;;;5.40;;
11590;SDS011;5851;54.050;9.974;2023-09-18T12:59:08;8.13;;;5.38;;
11590;SDS011;5851;54.050;9.974;2023-09-18T13:01:38;9.55;;;5.78;;
11590;SDS011;5851;54.050;9.974;2023-09-18T13:04:06;8.45;;;5.55;;
11590;SDS011;5851;54.050;9.974;2023-09-18T13:06:38;7.70;;;5.00;;
11590;SDS011;5851;54.050;9.974;2023-09-18T13:09:17;7.85;;;5.60;;
11590;SDS011;5851;54.050;9.974;2023-09-18T13:11:52;7.88;;;5.75;;
11590;SDS011;5851;54.050;9.974;2023-09-18T13:14:20;9.98;;;5.70;;
11590;SDS011;5851;54.050;9.974;2023-09-18T13:16:47;6.25;;;5.03;;
11590;SDS011;5851;54.050;9.974;2023-09-18T13:19:15;9.20;;;5.60;;
11590;SDS011;5851;54.050;9.974;2023-09-18T13:21:46;7.03;;;5.40;;
11590;SDS011;5851;54.050;9.974;2023-09-18T13:24:28;8.85;;;5.60;;
11590;SDS011;5851;54.050;9.974;2023-09-18T13:26:56;6.65;;;5.60;;
11590;SDS011;5851;54.050;9.974;2023-09-18T13:29:26;7.68;;;5.80;;
11590;SDS011;5851;54.050;9.974;2023-09-18T13:31:53;7.45;;;5.68;;
11590;SDS011;5851;54.050;9.974;2023-09-18T13:34:20;6.85;;;5.78;;
11590;SDS011;5851;54.050;9.974;2023-09-18T13:36:48;9.32;;;5.78;;
11590;SDS011;5851;54.050;9.974;2023-09-18T13:39:14;8.50;;;5.43;;
11590;SDS011;5851;54.050;9.974;2023-09-18T13:41:44;9.07;;;5.55;;
11590;SDS011;5851;54.050;9.974;2023-09-18T13:44:18;9.00;;;6.05;;
11590;SDS011;5851;54.050;9.974;2023-09-18T13:46:45;10.73;;;5.82;;
11590;SDS011;5851;54.050;9.974;2023-09-18T13:49:12;7.18;;;5.32;;
11590;SDS011;5851;54.050;9.974;2023-09-18T13:51:43;7.63;;;4.95;;
11590;SDS011;5851;54.050;9.974;2023-09-18T13:54:17;6.30;;;4.65;;
11590;SDS011;5851;54.050;9.974;2023-09-18T13:56:52;9.15;;;4.90;;
11590;SDS011;5851;54.050;9.974;2023-09-18T13:59:20;9.02;;;4.90;;
11590;SDS011;5851;54.050;9.974;2023-09-18T14:01:47;5.65;;;4.22;;
11590;SDS011;5851;54.050;9.974;2023-09-18T14:04:17;9.50;;;5.05;;
11590;SDS011;5851;54.050;9.974;2023-09-18T14:06:46;7.95;;;4.43;;
11590;SDS011;5851;54.050;9.974;2023-09-18T14:09:13;8.27;;;4.28;;
11590;SDS011;5851;54.050;9.974;2023-09-18T14:11:42;7.15;;;4.65;;
11590;SDS011;5851;54.050;9.974;2023-09-18T14:14:11;7.18;;;4.30;;
11590;SDS011;5851;54.050;9.974;2023-09-18T14:16:38;5.38;;;3.95;;
11590;SDS011;5851;54.050;9.974;2023-09-18T14:19:06;7.72;;;4.28;;
11590;SDS011;5851;54.050;9.974;2023-09-18T14:21:36;6.30;;;4.07;;
11590;SDS011;5851;54.050;9.974;2023-09-18T14:24:04;5.40;;;4.05;;
11590;SDS011;5851;54.050;9.974;2023-09-18T14:26:32;9.05;;;4.22;;
11590;SDS011;5851;54.050;9.974;2023-09-18T14:29:05;8.68;;;4.60;;
11590;SDS011;5851;54.050;9.974;2023-09-18T14:31:34;5.82;;;4.50;;
11590;SDS011;5851;54.050;9.974;2023-09-18T14:34:02;7.72;;;4.30;;
11590;SDS011;5851;54.050;9.974;2023-09-18T14:36:30;7.25;;;4.32;;
11590;SDS011;5851;54.050;9.974;2023-09-18T14:38:59;8.40;;;3.78;;
11590;SDS011;5851;54.050;9.974;2023-09-18T14:41:26;6.97;;;4.03;;
11590;SDS011;5851;54.050;9.974;2023-09-18T14:43:53;5.97;;;3.80;;
11590;SDS011;5851;54.050;9.974;2023-09-18T14:46:22;5.53;;;3.65;;
11590;SDS011;5851;54.050;9.974;2023-09-18T14:48:51;4.97;;;3.80;;
11590;SDS011;5851;54.050;9.974;2023-09-18T14:51:18;4.22;;;3.75;;
11590;SDS011;5851;54.050;9.974;2023-09-18T14:53:45;6.35;;;3.47;;
11590;SDS011;5851;54.050;9.974;2023-09-18T14:56:12;7.05;;;3.70;;
11590;SDS011;5851;54.050;9.974;2023-09-18T14:58:40;6.40;;;3.92;;
11590;SDS011;5851;54.050;9.974;2023-09-18T15:01:08;6.53;;;3.40;;
11590;SDS011;5851;54.050;9.974;2023-09-18T15:03:36;8.20;;;3.72;;
11590;SDS011;5851;54.050;9.974;2023-09-18T15:06:05;4.82;;;3.40;;
11590;SDS011;5851;54.050;9.974;2023-09-18T15:08:32;5.63;;;3.72;;
11590;SDS011;5851;54.050;9.974;2023-09-18T15:10:59;7.25;;;3.63;;
11590;SDS011;5851;54.050;9.974;2023-09-18T15:13:26;5.45;;;3.80;;